sensor_id;sensor_type;location;lat;lon;timestamp;P1;durP1;ratioP1;P2;durP2;ratioP2
38427;SDS011;24211;49.980;19.776;2022-08-02T00:00:37;5.30;;;3.13;;
38427;SDS011;24211;49.980;19.776;2022-08-02T00:03:09;5.38;;;3.38;;
38427;SDS011;24211;49.980;19.776;2022-08-02T00:05:36;7.43;;;3.60;;
38427;SDS011;24211;49.980;19.776;2022-08-02T00:08:06;5.60;;;3.65;;
38427;SDS011;24211;49.980;19.776;2022-08-02T00:10:33;4.45;;;3.22;;
38427;SDS011;24211;49.980;19.776;2022-08-02T00:13:01;5.97;;;3.22;;
38427;SDS011;24211;49.980;19.776;2022-08-02T00:15:29;7.05;;;3.63;;
38427;SDS011;24211;49.980;19.776;2022-08-02T00:17:56;5.13;;;3.13;;
38427;SDS011;24211;49.980;19.776;2022-08-02T00:20:24;5.10;;;3.42;;
38427;SDS011;24211;49.980;19.776;2022-08-02T00:22:51;5.93;;;3.75;;
38427;SDS011;24211;49.980;19.776;2022-08-02T00:25:18;6.10;;;3.60;;
38427;SDS011;24211;49.980;19.776;2022-08-02T00:27:46;5.93;;;3.55;;
38427;SDS011;24211;49.980;19.776;2022-08-02T00:30:13;5.75;;;3.47;;
38427;SDS011;24211;49.980;19.776;2022-08-02T00:32:41;5.68;;;3.90;;
38427;SDS011;24211;49.980;19.776;2022-08-02T00:35:08;6.00;;;3.70;;
38427;SDS011;24211;49.980;19.776;2022-08-02T00:37:39;7.00;;;3.80;;
38427;SDS011;24211;49.980;19.776;2022-08-02T00:40:08;6.57;;;3.55;;
38427;SDS011;24211;49.980;19.776;2022-08-02T00:42:38;7.00;;;3.40;;
38427;SDS011;24211;49.980;19.776;2022-08-02T00:45:07;7.30;;;3.63;;
38427;SDS011;24211;49.980;19.776;2022-08-02T00:47:35;5.70;;;3.58;;
38427;SDS011;24211;49.980;19.776;2022-08-02T00:50:03;6.50;;;3.78;;
38427;SDS011;24211;49.980;19.776;2022-08-02T00:52:31;5.85;;;3.80;;
38427;SDS011;24211;49.980;19.776;2022-08-02T00:54:58;5.40;;;3.90;;
38427;SDS011;24211;49.980;19.776;2022-08-02T00:57:26;6.05;;;3.97;;
38427;SDS011;24211;49.980;19.776;2022-08-02T00:59:53;6.40;;;3.90;;
38427;SDS011;24211;49.980;19.776;2022-08-02T01:02:20;7.75;;;4.78;;
38427;SDS011;24211;49.980;19.776;2022-08-02T01:04:48;6.25;;;4.15;;
38427;SDS011;24211;49.980;19.776;2022-08-02T01:07:51;6.75;;;4.18;;
38427;SDS011;24211;49.980;19.776;2022-08-02T01:10:19;7.13;;;3.85;;
38427;SDS011;24211;49.980;19.776;2022-08-02T01:15:46;6.35;;;3.88;;
38427;SDS011;24211;49.980;19.776;2022-08-02T01:18:26;8.40;;;4.35;;
38427;SDS011;24211;49.980;19.776;2022-08-02T01:24:15;5.75;;;3.97;;
38427;SDS011;24211;49.980;19.776;2022-08-02T01:29:48;7.53;;;4.13;;
38427;SDS011;24211;49.980;19.776;2022-08-02T01:32:23;6.07;;;4.05;;
38427;SDS011;24211;49.980;19.776;2022-08-02T01:34:58;5.78;;;3.70;;
38427;SDS011;24211;49.980;19.776;2022-08-02T01:38:24;7.00;;;4.22;;
38427;SDS011;24211;49.980;19.776;2022-08-02T01:41:20;5.93;;;4.00;;
38427;SDS011;24211;49.980;19.776;2022-08-02T01:43:53;5.78;;;3.47;;
38427;SDS011;24211;49.980;19.776;2022-08-02T01:46:30;5.95;;;3.80;;
38427;SDS011;24211;49.980;19.776;2022-08-02T01:49:36;5.60;;;3.40;;
38427;SDS011;24211;49.980;19.776;2022-08-02T01:52:08;6.13;;;3.80;;
38427;SDS011;24211;49.980;19.776;2022-08-02T01:54:51;5.25;;;3.47;;
38427;SDS011;24211;49.980;19.776;2022-08-02T01:57:29;6.25;;;3.72;;
38427;SDS011;24211;49.980;19.776;2022-08-02T02:00:13;5.85;;;3.88;;
38427;SDS011;24211;49.980;19.776;2022-08-02T02:02:44;6.13;;;4.10;;
38427;SDS011;24211;49.980;19.776;2022-08-02T02:05:15;6.25;;;3.95;;
38427;SDS011;24211;49.980;19.776;2022-08-02T02:07:48;7.10;;;4.05;;
38427;SDS011;24211;49.980;19.776;2022-08-02T02:10:21;5.78;;;4.07;;
38427;SDS011;24211;49.980;19.776;2022-08-02T02:13:13;6.40;;;3.97;;
38427;SDS011;24211;49.980;19.776;2022-08-02T02:15:46;5.82;;;3.58;;
38427;SDS011;24211;49.980;19.776;2022-08-02T02:18:38;5.90;;;3.80;;
38427;SDS011;24211;49.980;19.776;2022-08-02T02:21:11;5.72;;;3.78;;
38427;SDS011;24211;49.980;19.776;2022-08-02T02:23:39;6.75;;;3.75;;
38427;SDS011;24211;49.980;19.776;2022-08-02T02:26:10;5.70;;;3.30;;
38427;SDS011;24211;49.980;19.776;2022-08-02T02:29:15;6.95;;;4.05;;
38427;SDS011;24211;49.980;19.776;2022-08-02T02:31:48;5.97;;;3.60;;
38427;SDS011;24211;49.980;19.776;2022-08-02T02:34:34;5.35;;;3.35;;
38427;SDS011;24211;49.980;19.776;2022-08-02T02:37:07;6.43;;;3.58;;
38427;SDS011;24211;49.980;19.776;2022-08-02T02:39:44;6.15;;;3.80;;
38427;SDS011;24211;49.980;19.776;2022-08-02T02:42:17;6.07;;;3.63;;
38427;SDS011;24211;49.980;19.776;2022-08-02T02:44:52;6.45;;;3.55;;
38427;SDS011;24211;49.980;19.776;2022-08-02T02:47:21;5.93;;;3.40;;
38427;SDS011;24211;49.980;19.776;2022-08-02T02:50:08;6.68;;;4.15;;
38427;SDS011;24211;49.980;19.776;2022-08-02T02:52:38;5.57;;;3.67;;
38427;SDS011;24211;49.980;19.776;2022-08-02T02:55:07;7.47;;;4.18;;
38427;SDS011;24211;49.980;19.776;2022-08-02T02:57:36;5.82;;;3.65;;
38427;SDS011;24211;49.980;19.776;2022-08-02T03:00:11;5.95;;;3.75;;
38427;SDS011;24211;49.980;19.776;2022-08-02T03:02:41;6.30;;;4.10;;
38427;SDS011;24211;49.980;19.776;2022-08-02T03:05:34;6.80;;;4.03;;
38427;SDS011;24211;49.980;19.776;2022-08-02T03:08:03;8.88;;;4.63;;
38427;SDS011;24211;49.980;19.776;2022-08-02T03:10:31;7.43;;;4.80;;
38427;SDS011;24211;49.980;19.776;2022-08-02T03:13:12;8.97;;;5.37;;
38427;SDS011;24211;49.980;19.776;2022-08-02T03:15:41;8.52;;;4.78;;
38427;SDS011;24211;49.980;19.776;2022-08-02T03:21:04;8.20;;;5.03;;
38427;SDS011;24211;49.980;19.776;2022-08-02T03:23:40;8.25;;;5.00;;
38427;SDS011;24211;49.980;19.776;2022-08-02T03:26:26;9.10;;;5.63;;
38427;SDS011;24211;49.980;19.776;2022-08-02T03:29:12;8.60;;;5.43;;
38427;SDS011;24211;49.980;19.776;2022-08-02T03:31:40;9.35;;;5.80;;
38427;SDS011;24211;49.980;19.776;2022-08-02T03:34:32;8.65;;;5.45;;
38427;SDS011;24211;49.980;19.776;2022-08-02T03:37:00;10.80;;;6.22;;
38427;SDS011;24211;49.980;19.776;2022-08-02T03:39:29;10.68;;;5.85;;
38427;SDS011;24211;49.980;19.776;2022-08-02T03:41:58;10.10;;;6.30;;
38427;SDS011;24211;49.980;19.776;2022-08-02T03:44:27;10.35;;;6.60;;
38427;SDS011;24211;49.980;19.776;2022-08-02T03:46:55;9.23;;;5.68;;
38427;SDS011;24211;49.980;19.776;2022-08-02T03:49:36;10.25;;;6.03;;
38427;SDS011;24211;49.980;19.776;2022-08-02T03:52:19;10.20;;;5.82;;
38427;SDS011;24211;49.980;19.776;2022-08-02T03:55:00;8.55;;;5.28;;
38427;SDS011;24211;49.980;19.776;2022-08-02T03:57:27;10.63;;;5.85;;
38427;SDS011;24211;49.980;19.776;2022-08-02T03:59:56;12.10;;;6.25;;
38427;SDS011;24211;49.980;19.776;2022-08-02T04:02:23;10.15;;;5.93;;
38427;SDS011;24211;49.980;19.776;2022-08-02T04:04:50;10.63;;;6.03;;
38427;SDS011;24211;49.980;19.776;2022-08-02T04:07:18;10.63;;;5.97;;
38427;SDS011;24211;49.980;19.776;2022-08-02T04:10:06;9.38;;;5.72;;
38427;SDS011;24211;49.980;19.776;2022-08-02T04:12:34;9.90;;;5.60;;
38427;SDS011;24211;49.980;19.776;2022-08-02T04:15:02;10.98;;;5.80;;
38427;SDS011;24211;49.980;19.776;2022-08-02T04:17:32;8.77;;;5.68;;
38427;SDS011;24211;49.980;19.776;2022-08-02T04:20:10;9.23;;;5.38;;
38427;SDS011;24211;49.980;19.776;2022-08-02T04:22:52;10.10;;;5.63;;
38427;SDS011;24211;49.980;19.776;2022-08-02T04:25:48;11.50;;;6.60;;
38427;SDS011;24211;49.980;19.776;2022-08-02T04:28:54;13.20;;;6.95;;
38427;SDS011;24211;49.980;19.776;2022-08-02T04:31:24;10.40;;;6.30;;
38427;SDS011;24211;49.980;19.776;2022-08-02T04:34:10;13.25;;;6.88;;
38427;SDS011;24211;49.980;19.776;2022-08-02T04:36:41;10.75;;;6.22;;
38427;SDS011;24211;49.980;19.776;2022-08-02T04:39:09;11.27;;;6.45;;
38427;SDS011;24211;49.980;19.776;2022-08-02T04:41:39;8.75;;;5.88;;
38427;SDS011;24211;49.980;19.776;2022-08-02T04:44:11;10.57;;;6.20;;
38427;SDS011;24211;49.980;19.776;2022-08-02T04:46:40;13.73;;;7.10;;
38427;SDS011;24211;49.980;19.776;2022-08-02T04:49:09;11.05;;;7.07;;
38427;SDS011;24211;49.980;19.776;2022-08-02T04:51:38;9.73;;;6.32;;
38427;SDS011;24211;49.980;19.776;2022-08-02T04:54:09;10.32;;;6.50;;
38427;SDS011;24211;49.980;19.776;2022-08-02T04:56:37;11.25;;;6.75;;
38427;SDS011;24211;49.980;19.776;2022-08-02T04:59:06;9.73;;;6.30;;
38427;SDS011;24211;49.980;19.776;2022-08-02T05:01:34;10.18;;;6.75;;
38427;SDS011;24211;49.980;19.776;2022-08-02T05:04:02;10.48;;;6.43;;
38427;SDS011;24211;49.980;19.776;2022-08-02T05:06:30;9.27;;;5.70;;
38427;SDS011;24211;49.980;19.776;2022-08-02T05:08:58;9.10;;;5.88;;
38427;SDS011;24211;49.980;19.776;2022-08-02T05:11:26;10.95;;;6.15;;
38427;SDS011;24211;49.980;19.776;2022-08-02T05:14:03;10.10;;;5.50;;
38427;SDS011;24211;49.980;19.776;2022-08-02T05:16:31;10.05;;;5.97;;
38427;SDS011;24211;49.980;19.776;2022-08-02T05:18:59;9.02;;;5.63;;
38427;SDS011;24211;49.980;19.776;2022-08-02T05:21:29;10.32;;;6.05;;
38427;SDS011;24211;49.980;19.776;2022-08-02T05:23:57;10.80;;;6.07;;
38427;SDS011;24211;49.980;19.776;2022-08-02T05:26:24;9.70;;;6.13;;
38427;SDS011;24211;49.980;19.776;2022-08-02T05:28:52;11.70;;;6.85;;
38427;SDS011;24211;49.980;19.776;2022-08-02T05:31:19;12.10;;;6.47;;
38427;SDS011;24211;49.980;19.776;2022-08-02T05:33:47;11.45;;;6.35;;
38427;SDS011;24211;49.980;19.776;2022-08-02T05:36:16;15.00;;;7.95;;
38427;SDS011;24211;49.980;19.776;2022-08-02T05:38:43;12.23;;;7.10;;
38427;SDS011;24211;49.980;19.776;2022-08-02T05:41:18;13.25;;;7.38;;
38427;SDS011;24211;49.980;19.776;2022-08-02T05:43:46;14.88;;;8.15;;
38427;SDS011;24211;49.980;19.776;2022-08-02T05:46:14;13.05;;;7.72;;
38427;SDS011;24211;49.980;19.776;2022-08-02T05:48:41;13.57;;;7.82;;
38427;SDS011;24211;49.980;19.776;2022-08-02T05:51:11;11.95;;;7.32;;
38427;SDS011;24211;49.980;19.776;2022-08-02T05:53:54;14.38;;;7.25;;
38427;SDS011;24211;49.980;19.776;2022-08-02T05:56:38;11.68;;;7.03;;
38427;SDS011;24211;49.980;19.776;2022-08-02T05:59:25;13.25;;;7.47;;
38427;SDS011;24211;49.980;19.776;2022-08-02T06:02:21;12.95;;;7.30;;
38427;SDS011;24211;49.980;19.776;2022-08-02T06:05:09;13.27;;;6.93;;
38427;SDS011;24211;49.980;19.776;2022-08-02T06:07:42;11.48;;;6.60;;
38427;SDS011;24211;49.980;19.776;2022-08-02T06:10:12;10.88;;;6.68;;
38427;SDS011;24211;49.980;19.776;2022-08-02T06:13:04;12.15;;;6.70;;
38427;SDS011;24211;49.980;19.776;2022-08-02T06:15:41;10.90;;;6.75;;
38427;SDS011;24211;49.980;19.776;2022-08-02T06:18:28;9.10;;;5.97;;
38427;SDS011;24211;49.980;19.776;2022-08-02T06:21:02;12.57;;;7.07;;
38427;SDS011;24211;49.980;19.776;2022-08-02T06:23:51;13.77;;;6.93;;
38427;SDS011;24211;49.980;19.776;2022-08-02T06:26:25;11.52;;;7.35;;
38427;SDS011;24211;49.980;19.776;2022-08-02T06:28:54;11.63;;;6.75;;
38427;SDS011;24211;49.980;19.776;2022-08-02T06:31:24;12.60;;;7.43;;
38427;SDS011;24211;49.980;19.776;2022-08-02T06:33:54;13.07;;;7.10;;
38427;SDS011;24211;49.980;19.776;2022-08-02T06:39:13;10.50;;;6.75;;
38427;SDS011;24211;49.980;19.776;2022-08-02T06:41:53;11.20;;;7.13;;
38427;SDS011;24211;49.980;19.776;2022-08-02T06:44:37;10.60;;;6.70;;
38427;SDS011;24211;49.980;19.776;2022-08-02T06:47:16;10.60;;;6.90;;
38427;SDS011;24211;49.980;19.776;2022-08-02T06:49:44;10.93;;;6.78;;
38427;SDS011;24211;49.980;19.776;2022-08-02T06:52:26;11.43;;;7.03;;
38427;SDS011;24211;49.980;19.776;2022-08-02T06:54:58;10.05;;;6.47;;
38427;SDS011;24211;49.980;19.776;2022-08-02T06:57:27;10.93;;;6.93;;
38427;SDS011;24211;49.980;19.776;2022-08-02T06:59:56;11.45;;;7.20;;
38427;SDS011;24211;49.980;19.776;2022-08-02T07:04:56;9.65;;;6.43;;
38427;SDS011;24211;49.980;19.776;2022-08-02T07:07:24;10.15;;;6.25;;
38427;SDS011;24211;49.980;19.776;2022-08-02T07:09:52;9.13;;;6.40;;
38427;SDS011;24211;49.980;19.776;2022-08-02T07:12:28;9.60;;;6.30;;
38427;SDS011;24211;49.980;19.776;2022-08-02T07:15:00;10.32;;;6.18;;
38427;SDS011;24211;49.980;19.776;2022-08-02T07:17:33;10.55;;;6.32;;
38427;SDS011;24211;49.980;19.776;2022-08-02T07:20:02;10.05;;;6.13;;
38427;SDS011;24211;49.980;19.776;2022-08-02T07:22:31;8.75;;;6.03;;
38427;SDS011;24211;49.980;19.776;2022-08-02T07:24:59;9.52;;;5.95;;
38427;SDS011;24211;49.980;19.776;2022-08-02T07:27:29;9.73;;;6.68;;
38427;SDS011;24211;49.980;19.776;2022-08-02T07:29:58;9.18;;;6.18;;
38427;SDS011;24211;49.980;19.776;2022-08-02T07:32:29;10.00;;;6.05;;
38427;SDS011;24211;49.980;19.776;2022-08-02T07:34:58;8.50;;;6.03;;
38427;SDS011;24211;49.980;19.776;2022-08-02T07:37:33;10.77;;;6.72;;
38427;SDS011;24211;49.980;19.776;2022-08-02T07:40:24;10.53;;;6.30;;
38427;SDS011;24211;49.980;19.776;2022-08-02T07:42:54;8.80;;;6.07;;
38427;SDS011;24211;49.980;19.776;2022-08-02T07:45:30;8.85;;;5.80;;
38427;SDS011;24211;49.980;19.776;2022-08-02T07:48:01;9.70;;;6.20;;
38427;SDS011;24211;49.980;19.776;2022-08-02T07:50:29;8.77;;;6.15;;
38427;SDS011;24211;49.980;19.776;2022-08-02T07:53:00;10.05;;;6.25;;
38427;SDS011;24211;49.980;19.776;2022-08-02T07:55:27;9.93;;;5.68;;
38427;SDS011;24211;49.980;19.776;2022-08-02T07:58:09;9.25;;;5.65;;
38427;SDS011;24211;49.980;19.776;2022-08-02T08:00:40;8.98;;;6.10;;
38427;SDS011;24211;49.980;19.776;2022-08-02T08:03:11;8.73;;;6.00;;
38427;SDS011;24211;49.980;19.776;2022-08-02T08:05:39;9.18;;;5.60;;
38427;SDS011;24211;49.980;19.776;2022-08-02T08:08:07;7.95;;;5.57;;
38427;SDS011;24211;49.980;19.776;2022-08-02T08:10:43;7.57;;;5.38;;
38427;SDS011;24211;49.980;19.776;2022-08-02T08:13:14;7.57;;;5.30;;
38427;SDS011;24211;49.980;19.776;2022-08-02T08:15:42;6.95;;;4.97;;
38427;SDS011;24211;49.980;19.776;2022-08-02T08:18:21;7.38;;;5.13;;
38427;SDS011;24211;49.980;19.776;2022-08-02T08:20:49;7.95;;;5.15;;
38427;SDS011;24211;49.980;19.776;2022-08-02T08:23:17;7.45;;;5.05;;
38427;SDS011;24211;49.980;19.776;2022-08-02T08:30:23;6.28;;;4.25;;
38427;SDS011;24211;49.980;19.776;2022-08-02T08:32:51;7.20;;;4.30;;
38427;SDS011;24211;49.980;19.776;2022-08-02T08:35:18;7.18;;;4.60;;
38427;SDS011;24211;49.980;19.776;2022-08-02T08:37:46;6.13;;;4.28;;
38427;SDS011;24211;49.980;19.776;2022-08-02T08:40:13;6.00;;;4.22;;
38427;SDS011;24211;49.980;19.776;2022-08-02T08:42:45;5.93;;;4.38;;
38427;SDS011;24211;49.980;19.776;2022-08-02T08:45:13;6.95;;;4.00;;
38427;SDS011;24211;49.980;19.776;2022-08-02T08:47:43;5.85;;;4.35;;
38427;SDS011;24211;49.980;19.776;2022-08-02T08:50:23;6.60;;;4.22;;
38427;SDS011;24211;49.980;19.776;2022-08-02T08:52:53;6.70;;;4.22;;
38427;SDS011;24211;49.980;19.776;2022-08-02T08:55:31;5.47;;;3.97;;
38427;SDS011;24211;49.980;19.776;2022-08-02T08:58:00;5.30;;;3.70;;
38427;SDS011;24211;49.980;19.776;2022-08-02T09:00:31;5.07;;;3.38;;
38427;SDS011;24211;49.980;19.776;2022-08-02T09:03:02;8.63;;;3.78;;
38427;SDS011;24211;49.980;19.776;2022-08-02T09:05:35;4.13;;;3.15;;
38427;SDS011;24211;49.980;19.776;2022-08-02T09:08:05;4.22;;;3.00;;
38427;SDS011;24211;49.980;19.776;2022-08-02T09:10:40;5.53;;;3.13;;
38427;SDS011;24211;49.980;19.776;2022-08-02T09:16:10;5.35;;;2.80;;
38427;SDS011;24211;49.980;19.776;2022-08-02T09:18:42;4.55;;;2.45;;
38427;SDS011;24211;49.980;19.776;2022-08-02T09:21:14;4.47;;;2.72;;
38427;SDS011;24211;49.980;19.776;2022-08-02T09:23:48;4.70;;;2.40;;
38427;SDS011;24211;49.980;19.776;2022-08-02T09:26:21;4.00;;;2.70;;
38427;SDS011;24211;49.980;19.776;2022-08-02T09:28:50;5.35;;;2.67;;
38427;SDS011;24211;49.980;19.776;2022-08-02T09:31:26;6.05;;;2.60;;
38427;SDS011;24211;49.980;19.776;2022-08-02T09:33:55;4.38;;;2.67;;
38427;SDS011;24211;49.980;19.776;2022-08-02T09:36:25;4.53;;;2.58;;
38427;SDS011;24211;49.980;19.776;2022-08-02T09:39:03;6.72;;;2.90;;
38427;SDS011;24211;49.980;19.776;2022-08-02T09:41:33;5.20;;;2.90;;
38427;SDS011;24211;49.980;19.776;2022-08-02T09:44:04;5.15;;;2.78;;
38427;SDS011;24211;49.980;19.776;2022-08-02T09:46:44;4.82;;;3.03;;
38427;SDS011;24211;49.980;19.776;2022-08-02T09:49:13;5.03;;;2.80;;
38427;SDS011;24211;49.980;19.776;2022-08-02T09:51:50;5.05;;;3.10;;
38427;SDS011;24211;49.980;19.776;2022-08-02T09:54:22;4.85;;;3.10;;
38427;SDS011;24211;49.980;19.776;2022-08-02T09:56:58;4.93;;;3.28;;
38427;SDS011;24211;49.980;19.776;2022-08-02T09:59:27;5.45;;;3.10;;
38427;SDS011;24211;49.980;19.776;2022-08-02T10:01:59;4.80;;;3.33;;
38427;SDS011;24211;49.980;19.776;2022-08-02T10:04:30;4.85;;;3.22;;
38427;SDS011;24211;49.980;19.776;2022-08-02T10:07:20;5.28;;;3.30;;
38427;SDS011;24211;49.980;19.776;2022-08-02T10:09:49;5.57;;;3.22;;
38427;SDS011;24211;49.980;19.776;2022-08-02T10:12:18;5.00;;;3.38;;
38427;SDS011;24211;49.980;19.776;2022-08-02T10:14:49;6.35;;;3.60;;
38427;SDS011;24211;49.980;19.776;2022-08-02T10:17:18;4.57;;;3.20;;
38427;SDS011;24211;49.980;19.776;2022-08-02T10:19:46;5.90;;;3.00;;
38427;SDS011;24211;49.980;19.776;2022-08-02T10:22:32;4.28;;;3.10;;
38427;SDS011;24211;49.980;19.776;2022-08-02T10:25:01;5.07;;;3.67;;
38427;SDS011;24211;49.980;19.776;2022-08-02T10:27:30;5.47;;;3.63;;
38427;SDS011;24211;49.980;19.776;2022-08-02T10:30:20;6.75;;;3.20;;
38427;SDS011;24211;49.980;19.776;2022-08-02T10:33:01;5.80;;;3.55;;
38427;SDS011;24211;49.980;19.776;2022-08-02T10:35:33;5.45;;;3.55;;
38427;SDS011;24211;49.980;19.776;2022-08-02T10:38:07;5.28;;;3.60;;
38427;SDS011;24211;49.980;19.776;2022-08-02T10:40:44;4.93;;;3.50;;
38427;SDS011;24211;49.980;19.776;2022-08-02T10:52:04;7.38;;;3.65;;
38427;SDS011;24211;49.980;19.776;2022-08-02T10:54:38;5.15;;;3.72;;
38427;SDS011;24211;49.980;19.776;2022-08-02T11:02:44;6.43;;;4.20;;
38427;SDS011;24211;49.980;19.776;2022-08-02T11:05:29;6.95;;;4.18;;
38427;SDS011;24211;49.980;19.776;2022-08-02T11:08:16;8.02;;;5.00;;
38427;SDS011;24211;49.980;19.776;2022-08-02T11:10:46;7.88;;;5.00;;
38427;SDS011;24211;49.980;19.776;2022-08-02T11:13:15;10.25;;;5.28;;
38427;SDS011;24211;49.980;19.776;2022-08-02T11:15:47;7.72;;;5.05;;
38427;SDS011;24211;49.980;19.776;2022-08-02T11:18:19;8.50;;;4.78;;
38427;SDS011;24211;49.980;19.776;2022-08-02T11:24:25;6.53;;;4.68;;
38427;SDS011;24211;49.980;19.776;2022-08-02T11:27:05;6.10;;;4.10;;
38427;SDS011;24211;49.980;19.776;2022-08-02T11:29:38;6.97;;;4.80;;
38427;SDS011;24211;49.980;19.776;2022-08-02T11:32:20;7.22;;;4.97;;
38427;SDS011;24211;49.980;19.776;2022-08-02T11:34:59;6.78;;;4.70;;
38427;SDS011;24211;49.980;19.776;2022-08-02T11:37:30;6.13;;;4.88;;
38427;SDS011;24211;49.980;19.776;2022-08-02T11:40:07;6.35;;;4.75;;
38427;SDS011;24211;49.980;19.776;2022-08-02T11:42:46;8.07;;;5.25;;
38427;SDS011;24211;49.980;19.776;2022-08-02T11:45:23;7.35;;;5.60;;
38427;SDS011;24211;49.980;19.776;2022-08-02T11:47:55;8.18;;;5.80;;
38427;SDS011;24211;49.980;19.776;2022-08-02T11:50:24;7.88;;;6.30;;
38427;SDS011;24211;49.980;19.776;2022-08-02T11:52:56;8.38;;;5.95;;
38427;SDS011;24211;49.980;19.776;2022-08-02T11:55:27;7.22;;;5.57;;
38427;SDS011;24211;49.980;19.776;2022-08-02T11:57:58;7.53;;;5.47;;
38427;SDS011;24211;49.980;19.776;2022-08-02T12:00:30;7.38;;;5.32;;
38427;SDS011;24211;49.980;19.776;2022-08-02T12:02:58;8.02;;;5.72;;
38427;SDS011;24211;49.980;19.776;2022-08-02T12:05:26;8.25;;;5.80;;
38427;SDS011;24211;49.980;19.776;2022-08-02T12:08:14;6.88;;;5.43;;
38427;SDS011;24211;49.980;19.776;2022-08-02T12:10:48;8.50;;;5.43;;
38427;SDS011;24211;49.980;19.776;2022-08-02T12:13:16;7.47;;;5.75;;
38427;SDS011;24211;49.980;19.776;2022-08-02T12:15:46;7.60;;;5.93;;
38427;SDS011;24211;49.980;19.776;2022-08-02T12:18:14;7.30;;;5.82;;
38427;SDS011;24211;49.980;19.776;2022-08-02T12:23:55;9.07;;;6.20;;
38427;SDS011;24211;49.980;19.776;2022-08-02T12:26:27;10.93;;;6.43;;
38427;SDS011;24211;49.980;19.776;2022-08-02T12:28:56;8.90;;;6.57;;
38427;SDS011;24211;49.980;19.776;2022-08-02T12:31:44;9.45;;;6.50;;
38427;SDS011;24211;49.980;19.776;2022-08-02T12:34:23;8.32;;;6.60;;
38427;SDS011;24211;49.980;19.776;2022-08-02T12:37:04;7.72;;;6.22;;
38427;SDS011;24211;49.980;19.776;2022-08-02T12:39:44;7.10;;;5.80;;
38427;SDS011;24211;49.980;19.776;2022-08-02T12:42:15;9.02;;;5.88;;
38427;SDS011;24211;49.980;19.776;2022-08-02T12:44:56;7.18;;;5.50;;
38427;SDS011;24211;49.980;19.776;2022-08-02T12:47:25;7.40;;;5.68;;
38427;SDS011;24211;49.980;19.776;2022-08-02T12:50:18;8.80;;;6.57;;
38427;SDS011;24211;49.980;19.776;2022-08-02T12:53:18;7.55;;;5.85;;
38427;SDS011;24211;49.980;19.776;2022-08-02T12:55:50;8.50;;;6.53;;
38427;SDS011;24211;49.980;19.776;2022-08-02T12:58:29;8.52;;;6.40;;
38427;SDS011;24211;49.980;19.776;2022-08-02T13:01:12;7.85;;;6.65;;
38427;SDS011;24211;49.980;19.776;2022-08-02T13:03:49;9.55;;;6.15;;
38427;SDS011;24211;49.980;19.776;2022-08-02T13:06:39;7.55;;;5.78;;
38427;SDS011;24211;49.980;19.776;2022-08-02T13:09:14;8.07;;;5.90;;
38427;SDS011;24211;49.980;19.776;2022-08-02T13:11:43;8.25;;;6.10;;
38427;SDS011;24211;49.980;19.776;2022-08-02T13:14:12;9.77;;;6.20;;
38427;SDS011;24211;49.980;19.776;2022-08-02T13:16:40;7.60;;;6.18;;
38427;SDS011;24211;49.980;19.776;2022-08-02T13:19:10;8.70;;;5.78;;
38427;SDS011;24211;49.980;19.776;2022-08-02T13:21:40;7.82;;;5.68;;
38427;SDS011;24211;49.980;19.776;2022-08-02T13:24:28;7.18;;;5.72;;
38427;SDS011;24211;49.980;19.776;2022-08-02T13:27:05;8.60;;;5.43;;
38427;SDS011;24211;49.980;19.776;2022-08-02T13:29:38;7.78;;;5.68;;
38427;SDS011;24211;49.980;19.776;2022-08-02T13:32:05;6.27;;;4.93;;
38427;SDS011;24211;49.980;19.776;2022-08-02T13:34:32;7.32;;;5.32;;
38427;SDS011;24211;49.980;19.776;2022-08-02T13:37:00;7.03;;;5.05;;
38427;SDS011;24211;49.980;19.776;2022-08-02T13:39:28;7.53;;;4.65;;
38427;SDS011;24211;49.980;19.776;2022-08-02T13:41:56;6.68;;;4.82;;
38427;SDS011;24211;49.980;19.776;2022-08-02T13:44:23;6.63;;;5.13;;
38427;SDS011;24211;49.980;19.776;2022-08-02T13:46:50;6.80;;;4.80;;
38427;SDS011;24211;49.980;19.776;2022-08-02T13:49:18;6.25;;;4.78;;
38427;SDS011;24211;49.980;19.776;2022-08-02T13:52:09;6.65;;;4.25;;
38427;SDS011;24211;49.980;19.776;2022-08-02T13:54:37;6.20;;;4.68;;
38427;SDS011;24211;49.980;19.776;2022-08-02T13:57:04;5.28;;;4.10;;
38427;SDS011;24211;49.980;19.776;2022-08-02T13:59:32;7.75;;;4.00;;
38427;SDS011;24211;49.980;19.776;2022-08-02T14:02:20;5.85;;;4.05;;
38427;SDS011;24211;49.980;19.776;2022-08-02T14:04:47;5.03;;;3.70;;
38427;SDS011;24211;49.980;19.776;2022-08-02T14:07:15;6.00;;;3.88;;
38427;SDS011;24211;49.980;19.776;2022-08-02T14:09:42;6.07;;;4.10;;
38427;SDS011;24211;49.980;19.776;2022-08-02T14:12:16;6.03;;;4.10;;
38427;SDS011;24211;49.980;19.776;2022-08-02T14:14:43;5.53;;;3.78;;
38427;SDS011;24211;49.980;19.776;2022-08-02T14:17:11;6.13;;;3.90;;
38427;SDS011;24211;49.980;19.776;2022-08-02T14:19:39;5.03;;;3.80;;
38427;SDS011;24211;49.980;19.776;2022-08-02T14:22:06;4.68;;;3.72;;
38427;SDS011;24211;49.980;19.776;2022-08-02T14:24:47;6.75;;;4.05;;
38427;SDS011;24211;49.980;19.776;2022-08-02T14:27:14;5.68;;;4.10;;
38427;SDS011;24211;49.980;19.776;2022-08-02T14:29:42;5.25;;;3.72;;
38427;SDS011;24211;49.980;19.776;2022-08-02T14:32:09;5.72;;;3.92;;
38427;SDS011;24211;49.980;19.776;2022-08-02T14:34:37;6.25;;;4.20;;
38427;SDS011;24211;49.980;19.776;2022-08-02T14:37:04;7.13;;;3.85;;
38427;SDS011;24211;49.980;19.776;2022-08-02T14:39:32;4.35;;;3.72;;
38427;SDS011;24211;49.980;19.776;2022-08-02T14:42:19;5.72;;;3.70;;
38427;SDS011;24211;49.980;19.776;2022-08-02T14:44:47;5.55;;;3.83;;
38427;SDS011;24211;49.980;19.776;2022-08-02T14:47:14;6.05;;;4.47;;
38427;SDS011;24211;49.980;19.776;2022-08-02T14:49:41;6.20;;;4.32;;
38427;SDS011;24211;49.980;19.776;2022-08-02T14:52:15;5.20;;;4.20;;
38427;SDS011;24211;49.980;19.776;2022-08-02T14:54:43;5.45;;;4.40;;
38427;SDS011;24211;49.980;19.776;2022-08-02T14:57:12;7.07;;;4.63;;
38427;SDS011;24211;49.980;19.776;2022-08-02T14:59:40;6.05;;;4.90;;
38427;SDS011;24211;49.980;19.776;2022-08-02T15:02:08;6.80;;;4.80;;
38427;SDS011;24211;49.980;19.776;2022-08-02T15:04:39;6.80;;;5.03;;
38427;SDS011;24211;49.980;19.776;2022-08-02T15:07:09;7.95;;;4.88;;
38427;SDS011;24211;49.980;19.776;2022-08-02T15:09:37;6.50;;;4.75;;
38427;SDS011;24211;49.980;19.776;2022-08-02T15:12:06;6.15;;;5.07;;
38427;SDS011;24211;49.980;19.776;2022-08-02T15:14:44;6.47;;;4.85;;
38427;SDS011;24211;49.980;19.776;2022-08-02T15:17:11;6.65;;;4.93;;
38427;SDS011;24211;49.980;19.776;2022-08-02T15:19:39;6.13;;;4.70;;
38427;SDS011;24211;49.980;19.776;2022-08-02T15:22:27;7.43;;;4.70;;
38427;SDS011;24211;49.980;19.776;2022-08-02T15:24:56;6.75;;;4.47;;
38427;SDS011;24211;49.980;19.776;2022-08-02T15:27:24;5.95;;;4.25;;
38427;SDS011;24211;49.980;19.776;2022-08-02T15:29:51;6.80;;;4.40;;
38427;SDS011;24211;49.980;19.776;2022-08-02T15:32:26;4.97;;;4.00;;
38427;SDS011;24211;49.980;19.776;2022-08-02T15:34:53;5.97;;;4.22;;
38427;SDS011;24211;49.980;19.776;2022-08-02T15:37:21;4.82;;;3.97;;
38427;SDS011;24211;49.980;19.776;2022-08-02T15:39:51;5.15;;;3.80;;
38427;SDS011;24211;49.980;19.776;2022-08-02T15:42:24;6.18;;;3.90;;
38427;SDS011;24211;49.980;19.776;2022-08-02T15:44:57;6.30;;;4.28;;
38427;SDS011;24211;49.980;19.776;2022-08-02T15:47:24;5.40;;;4.00;;
38427;SDS011;24211;49.980;19.776;2022-08-02T15:49:52;6.63;;;4.72;;
38427;SDS011;24211;49.980;19.776;2022-08-02T15:52:19;5.45;;;4.07;;